Date,TemperatureHighF,TemperatureAvgF,TemperatureLowF,DewpointHighF,DewpointAvgF,DewpointLowF,HumidityHigh,HumidityAvg,HumidityLow,PressureMaxIn,PressureMinIn,WindSpeedMaxMPH,WindSpeedAvgMPH,GustSpeedMaxMPH,PrecipitationSumIn
2013-7-1,85.1,78.6,73.9,76.1,72.5,68.0,92,81,67,29.99,29.64,14,4,14,0.25
2013-7-2,83.3,77.5,74.7,75.9,73.6,72.0,90,86,75,30.19,29.99,16,5,16,0.08
2013-7-3,87.6,78.9,32.0,77.9,73.9,71.6,96,84,67,30.26,30.16,15,4,15,0.17
2013-7-4,90.9,82.8,75.9,75.4,72.9,66.4,93,74,50,30.28,30.02,18,5,18,0.00
2013-7-5,91.2,83.8,75.7,74.8,72.6,69.3,89,70,53,30.25,30.13,19,4,19,0.00
2013-7-6,96.1,85.2,77.4,76.1,73.2,68.0,89,69,47,30.22,30.07,16,3,17,0.00
2013-7-7,93.7,84.2,75.0,74.8,71.7,65.3,84,66,47,30.13,29.98,22,4,23,0.04
2013-7-8,89.6,80.0,73.0,73.9,70.1,63.0,92,73,45,30.11,29.84,13,2,18,0.08
2013-7-9,88.7,81.1,32.0,76.5,72.6,69.3,88,76,62,30.11,29.98,10,1,10,0.00
2013-7-10,91.4,81.6,76.1,78.3,74.8,71.6,91,79,63,30.01,29.83,26,3,26,0.17
2013-7-11,88.9,79.8,75.0,73.9,71.0,66.9,90,74,52,29.90,29.81,13,3,13,0.04
2013-7-12,77.0,70.3,67.3,73.8,69.2,66.6,93,87,70,30.02,29.70,13,4,15,2.20
2013-7-13,88.0,77.3,69.1,74.1,71.0,69.3,93,78,62,30.28,30.02,11,1,11,0.00
2013-7-14,91.6,82.0,73.0,77.7,73.3,67.1,96,73,48,30.38,30.10,13,3,13,0.00
2013-7-15,96.6,83.9,73.4,76.6,72.1,66.9,90,68,42,30.35,30.19,9,1,9,0.00
2013-7-16,97.0,87.8,79.5,76.6,70.1,63.1,75,55,37,30.25,30.02,13,4,13,0.00
2013-7-17,98.6,86.7,77.5,76.1,72.0,66.7,84,62,41,30.22,30.10,10,1,10,0.00
2013-7-18,100.2,88.4,30.0,78.4,75.1,70.7,83,63,43,30.13,29.98,13,2,13,0.00
2013-7-19,97.9,88.6,79.7,78.6,75.5,70.7,80,62,48,30.01,29.78,17,4,19,0.00
2013-7-20,94.6,85.7,78.6,75.9,73.3,68.2,80,62,43,29.89,29.67,21,3,21,0.00
2013-7-21,95.4,83.5,30.0,75.6,71.3,66.7,82,63,41,29.93,29.83,11,1,11,0.00
2013-7-22,92.8,81.0,30.0,75.7,73.3,69.1,90,73,54,29.93,29.71,13,3,13,0.04
2013-7-23,88.7,80.8,73.8,74.7,69.9,61.9,92,67,42,29.75,29.60,18,2,18,0.08
2013-7-24,87.4,78.9,73.2,70.5,64.4,55.9,78,59,43,29.90,29.63,13,2,13,0.00
2013-7-25,84.2,73.8,64.8,62.6,55.9,50.5,66,51,39,30.02,29.87,13,5,15,0.00
2013-7-26,86.2,76.0,65.3,64.4,60.1,53.2,80,56,34,30.11,29.98,12,2,12,0.00
2013-7-27,86.7,74.9,68.2,72.0,68.4,63.5,86,74,49,30.05,29.89,22,3,23,0.21
2013-7-28,88.3,75.3,69.1,73.6,70.7,68.4,91,80,59,29.99,29.86,13,1,13,0.25
2013-7-29,86.9,75.9,66.7,71.1,58.7,49.8,83,55,31,30.17,29.96,13,3,13,0.00
2013-7-30,85.6,75.6,65.5,65.7,58.7,54.7,70,54,38,30.26,30.16,12,2,12,0.00
2013-7-31,81.3,73.4,67.6,70.5,67.0,63.0,90,76,58,30.17,30.01,19,2,19,0.12